createdAt,value
2022-10-01T00:03:04.384Z,96.26
2022-10-01T00:06:22.265Z,96.24
2022-10-01T00:09:30.268Z,96.33
2022-10-01T00:12:36.411Z,96.41
2022-10-01T00:15:42.669Z,96.44
2022-10-01T00:18:52.519Z,96.42
2022-10-01T00:21:59.020Z,96.41
2022-10-01T00:25:07.615Z,96.37
2022-10-01T00:28:14.247Z,96.33
2022-10-01T00:31:22.694Z,96.35
2022-10-01T00:34:29.330Z,96.34
2022-10-01T00:37:35.362Z,96.33
2022-10-01T00:40:41.400Z,96.34
2022-10-01T00:43:55.440Z,96.29
2022-10-01T00:47:01.448Z,96.24
2022-10-01T00:50:15.470Z,96.16
2022-10-01T00:53:24.348Z,96.06
2022-10-01T00:56:32.090Z,96.07
2022-10-01T00:59:37.553Z,96.03
2022-10-01T01:02:44.012Z,96.09
2022-10-01T01:05:49.307Z,96.12
2022-10-01T01:08:58.106Z,96.00
2022-10-01T01:12:27.210Z,96.10
2022-10-01T01:15:55.982Z,96.20
2022-10-01T01:19:17.082Z,96.25
2022-10-01T01:22:23.583Z,96.25
2022-10-01T01:25:35.795Z,96.32
2022-10-01T01:28:53.336Z,96.37
2022-10-01T01:32:00.116Z,96.39
2022-10-01T01:35:07.283Z,96.42
2022-10-01T01:38:22.628Z,96.38
2022-10-01T01:41:27.788Z,96.35
2022-10-01T01:44:40.772Z,96.35
2022-10-01T01:47:46.842Z,96.31
2022-10-01T01:51:04.132Z,96.33
2022-10-01T01:54:09.570Z,96.41
2022-10-01T01:57:15.420Z,96.45
2022-10-01T02:00:24.049Z,96.42
2022-10-01T02:03:31.644Z,96.36
2022-10-01T02:06:51.952Z,96.32
2022-10-01T02:10:24.532Z,96.31
2022-10-01T02:14:16.206Z,96.36
2022-10-01T02:17:33.236Z,96.38
2022-10-01T02:20:55.403Z,96.29
2022-10-01T02:24:39.488Z,96.16
2022-10-01T02:28:10.448Z,96.13
2022-10-01T02:31:16.348Z,96.12
2022-10-01T02:34:26.555Z,96.01
2022-10-01T02:37:35.467Z,95.96
2022-10-01T02:40:44.326Z,95.90
2022-10-01T02:43:58.065Z,95.86
2022-10-01T02:47:13.321Z,95.79
2022-10-01T02:50:19.525Z,95.72
2022-10-01T02:53:30.352Z,95.72
2022-10-01T02:56:48.196Z,95.73
2022-10-01T02:59:45.547Z,95.71
2022-10-01T03:02:51.472Z,95.68
2022-10-01T03:05:57.776Z,95.73
2022-10-01T03:09:04.719Z,95.71
2022-10-01T03:12:10.979Z,95.66
2022-10-01T03:15:16.855Z,95.62
2022-10-01T03:18:22.465Z,95.49
2022-10-01T03:21:28.333Z,95.42
2022-10-01T03:24:34.005Z,95.28
2022-10-01T03:27:39.478Z,95.40
2022-10-01T03:30:45.866Z,95.47
2022-10-01T03:33:52.106Z,95.44
2022-10-01T03:36:59.681Z,95.43
2022-10-01T03:40:06.242Z,95.39
2022-10-01T03:43:11.285Z,95.56
2022-10-01T03:46:18.637Z,95.70
2022-10-01T03:49:23.781Z,95.76
2022-10-01T03:52:31.173Z,95.63
2022-10-01T03:55:39.563Z,95.51
2022-10-01T03:58:45.709Z,95.49
2022-10-01T04:01:53.662Z,95.47
2022-10-01T04:04:58.559Z,95.53
2022-10-01T04:08:05.137Z,95.55
2022-10-01T04:11:10.079Z,95.47
2022-10-01T04:14:15.511Z,95.34
2022-10-01T04:17:23.452Z,95.31
2022-10-01T04:20:28.734Z,95.27
2022-10-01T04:23:33.814Z,95.28
2022-10-01T04:26:39.805Z,95.30
2022-10-01T04:29:45.022Z,95.33
2022-10-01T04:32:53.927Z,95.31
2022-10-01T04:36:00.747Z,95.34
2022-10-01T04:39:08.089Z,95.33
2022-10-01T04:42:12.841Z,95.31
2022-10-01T04:45:18.576Z,95.34
2022-10-01T04:48:23.914Z,95.33
2022-10-01T04:51:30.431Z,95.32
2022-10-01T04:54:36.715Z,95.37
2022-10-01T04:57:42.349Z,95.44
2022-10-01T05:00:48.179Z,95.48
2022-10-01T05:03:54.298Z,95.45
2022-10-01T05:07:00.544Z,95.50
2022-10-01T05:10:07.057Z,95.56
2022-10-01T05:13:12.635Z,95.67
2022-10-01T05:16:18.539Z,95.75
2022-10-01T05:19:28.008Z,95.79
2022-10-01T05:22:32.397Z,95.88
2022-10-01T05:25:37.848Z,96.07
2022-10-01T05:28:45.328Z,96.21
2022-10-01T05:31:52.021Z,96.35
2022-10-01T05:34:59.964Z,96.49
2022-10-01T05:38:11.265Z,96.62
2022-10-01T05:41:17.615Z,96.79
2022-10-01T05:44:23.069Z,97.02
2022-10-01T05:47:31.581Z,97.20
2022-10-01T05:50:39.633Z,97.35
2022-10-01T05:53:50.543Z,97.51
2022-10-01T05:56:56.154Z,97.69
2022-10-01T06:00:04.269Z,97.80
2022-10-01T06:03:12.444Z,97.92
2022-10-01T06:06:19.413Z,97.96
2022-10-01T06:09:25.715Z,97.99
2022-10-01T06:12:31.908Z,98.01
2022-10-01T06:15:38.707Z,97.99
2022-10-01T06:18:45.039Z,97.99
2022-10-01T06:21:50.571Z,98.03
2022-10-01T06:24:58.467Z,98.11
2022-10-01T06:28:12.673Z,98.19
2022-10-01T06:31:17.602Z,98.26
2022-10-01T06:34:22.784Z,98.24
2022-10-01T06:37:29.031Z,98.22
2022-10-01T06:40:36.656Z,98.22
2022-10-01T06:43:44.726Z,98.14
2022-10-01T06:46:53.674Z,98.16
2022-10-01T06:49:59.608Z,98.14
2022-10-01T06:53:06.685Z,98.06
2022-10-01T09:06:27.164Z,99.89
2022-10-01T09:12:25.282Z,99.49
2022-10-01T09:15:39.901Z,99.43
2022-10-01T09:19:05.884Z,99.38
2022-10-01T09:22:13.326Z,99.43
2022-10-01T09:25:41.517Z,99.41
2022-10-01T09:28:52.598Z,99.35
2022-10-01T09:32:00.910Z,99.25
2022-10-01T09:35:08.630Z,99.06
2022-10-01T09:38:39.645Z,98.79
2022-10-01T09:41:45.973Z,98.63
2022-10-01T09:44:54.888Z,98.68
2022-10-01T09:48:04.805Z,98.77
2022-10-01T09:51:18.724Z,98.81
2022-10-01T09:54:57.660Z,98.93
2022-10-01T09:58:29.512Z,98.98
2022-10-01T10:01:43.940Z,98.85
2022-10-01T10:04:52.624Z,98.64
2022-10-01T10:08:15.324Z,98.50
2022-10-01T10:11:24.383Z,98.49
2022-10-01T10:14:37.719Z,98.25
2022-10-01T10:17:46.788Z,98.03
2022-10-01T10:20:59.000Z,97.82
2022-10-01T10:24:08.500Z,97.61
2022-10-01T10:27:16.880Z,97.71
2022-10-01T10:30:33.486Z,97.76
2022-10-01T10:33:41.550Z,97.74
2022-10-01T10:36:51.426Z,97.96
2022-10-01T10:40:03.552Z,98.12
2022-10-01T10:43:10.515Z,98.04
2022-10-01T10:46:17.024Z,97.96
2022-10-01T10:49:40.633Z,97.88
2022-10-01T10:52:50.477Z,97.67
2022-10-01T10:56:00.273Z,97.20
2022-10-01T10:59:09.017Z,97.07
2022-10-01T11:02:17.360Z,97.05
2022-10-01T11:05:36.524Z,97.08
2022-10-01T11:08:42.825Z,97.22
2022-10-01T11:12:04.670Z,97.33
2022-10-01T11:15:36.427Z,97.34
2022-10-01T11:19:09.205Z,97.35
2022-10-01T11:22:36.034Z,97.33
2022-10-01T11:26:02.854Z,97.08
2022-10-01T11:29:40.773Z,96.84
2022-10-01T11:33:07.433Z,96.76
2022-10-01T11:36:44.273Z,96.57
2022-10-01T11:39:49.362Z,96.52
2022-10-01T11:42:55.450Z,96.31
2022-10-01T11:46:06.273Z,96.19
2022-10-01T11:49:15.115Z,96.26
2022-10-01T11:52:49.772Z,96.09
2022-10-01T11:56:21.721Z,95.79
2022-10-01T11:59:47.175Z,95.94
2022-10-01T12:03:10.895Z,95.89
2022-10-01T12:06:26.104Z,95.68
2022-10-01T12:09:58.444Z,95.40
2022-10-01T12:13:19.978Z,95.23
2022-10-01T12:17:02.361Z,95.05
2022-10-01T12:20:11.212Z,95.08
2022-10-01T12:23:19.457Z,95.14
2022-10-01T12:26:57.286Z,94.92
2022-10-01T12:30:32.506Z,94.67
2022-10-01T12:33:50.999Z,94.38
2022-10-01T12:37:20.853Z,94.13
2022-10-01T12:41:02.538Z,93.98
2022-10-01T12:44:56.751Z,93.85
2022-10-01T12:48:30.558Z,93.65
2022-10-01T12:51:59.263Z,93.52
2022-10-01T12:55:19.918Z,93.40
2022-10-01T12:58:42.893Z,93.37
2022-10-01T13:02:00.919Z,93.37
2022-10-01T13:05:32.751Z,93.30
2022-10-01T13:08:58.040Z,93.16
2022-10-01T13:12:41.151Z,93.03
2022-10-01T13:15:52.076Z,92.70
2022-10-01T13:19:23.377Z,92.32
2022-10-01T13:22:42.886Z,91.99
2022-10-01T13:25:55.796Z,91.72
2022-10-01T13:29:40.523Z,91.39
2022-10-01T13:33:09.289Z,91.11
2022-10-01T13:36:20.123Z,90.73
2022-10-01T13:39:35.606Z,90.50
2022-10-01T13:42:53.806Z,90.39
2022-10-01T13:46:02.978Z,90.30
2022-10-01T13:49:09.825Z,90.13
2022-10-01T13:52:14.882Z,90.00
2022-10-01T13:55:40.939Z,89.92
2022-10-01T13:58:52.789Z,89.81
2022-10-01T14:02:00.517Z,89.80
2022-10-01T14:05:09.621Z,89.71
2022-10-01T14:08:32.254Z,89.69
2022-10-01T14:11:58.812Z,89.65
2022-10-01T14:15:31.258Z,89.54
2022-10-01T14:18:39.842Z,89.52
2022-10-01T14:21:58.962Z,89.46
2022-10-01T14:25:25.996Z,89.27
2022-10-01T14:28:53.995Z,89.14
2022-10-01T14:32:17.676Z,89.02
2022-10-01T14:35:31.128Z,88.93
2022-10-01T14:38:36.341Z,88.79
2022-10-01T14:41:42.397Z,88.70
2022-10-01T14:44:59.781Z,88.60
2022-10-01T14:48:18.876Z,88.35
2022-10-01T14:51:44.746Z,87.99
2022-10-01T14:54:57.021Z,87.62
2022-10-01T14:58:05.637Z,87.31
2022-10-01T15:01:15.218Z,87.15
2022-10-01T15:04:31.342Z,87.11
2022-10-01T15:07:36.791Z,87.15
2022-10-01T15:10:42.627Z,87.21
2022-10-01T15:13:50.310Z,87.28
2022-10-01T15:16:56.092Z,87.30
2022-10-01T15:20:03.254Z,87.24
2022-10-01T15:23:08.180Z,87.16
2022-10-01T15:26:17.628Z,87.17
2022-10-01T15:29:27.745Z,87.13
2022-10-01T15:32:36.440Z,87.06
2022-10-01T15:35:42.486Z,87.09
2022-10-01T15:38:50.564Z,87.14
2022-10-01T15:41:56.303Z,86.97
2022-10-01T15:45:03.558Z,86.83
2022-10-01T15:48:09.364Z,86.76
2022-10-01T15:51:19.451Z,86.71
2022-10-01T15:54:26.532Z,86.67
2022-10-01T15:57:39.747Z,86.53
2022-10-01T16:00:40.436Z,86.37
2022-10-01T16:03:48.625Z,86.33
2022-10-01T16:07:01.642Z,86.41
2022-10-01T16:10:13.321Z,86.52
2022-10-01T16:13:46.023Z,86.59
2022-10-01T16:16:53.413Z,86.75
2022-10-01T16:20:07.627Z,86.94
2022-10-01T16:23:55.920Z,87.08
2022-10-01T16:27:03.815Z,87.24
2022-10-01T16:30:23.485Z,87.27
2022-10-01T16:33:30.975Z,87.28
2022-10-01T16:36:37.579Z,87.26
2022-10-01T16:39:43.825Z,87.22
2022-10-01T16:42:51.505Z,87.07
2022-10-01T16:45:57.166Z,86.93
2022-10-01T16:49:04.301Z,86.87
2022-10-01T16:52:09.743Z,86.83
2022-10-01T16:55:16.235Z,86.79
2022-10-01T16:58:23.699Z,86.75
2022-10-01T17:01:31.140Z,86.69
2022-10-01T17:04:40.524Z,86.63
2022-10-01T17:07:46.767Z,86.60
2022-10-01T17:11:10.627Z,86.64
2022-10-01T17:14:15.130Z,86.74
2022-10-01T17:17:20.002Z,86.78
2022-10-01T17:20:26.163Z,86.83
2022-10-01T17:23:33.889Z,86.79
2022-10-01T17:26:39.132Z,86.86
2022-10-01T17:29:47.278Z,86.93
2022-10-01T17:32:53.170Z,86.91
2022-10-01T17:36:05.180Z,86.91
2022-10-01T17:39:12.435Z,86.93
2022-10-01T17:42:19.779Z,86.97
2022-10-01T17:45:26.074Z,86.99
2022-10-01T17:48:31.986Z,87.06
2022-10-01T17:51:37.109Z,87.09
2022-10-01T17:54:42.125Z,86.96
2022-10-01T17:57:47.540Z,86.99
2022-10-01T18:00:56.689Z,86.91
2022-10-01T18:04:11.691Z,86.89
2022-10-01T18:07:17.456Z,86.88
2022-10-01T18:10:24.540Z,86.96
2022-10-01T18:13:29.260Z,87.02
2022-10-01T18:16:36.313Z,87.05
2022-10-01T18:19:53.244Z,87.08
2022-10-01T18:22:52.939Z,87.12
2022-10-01T18:25:59.866Z,87.03
2022-10-01T18:29:05.884Z,87.02
2022-10-01T18:32:25.590Z,86.99
2022-10-01T18:35:37.466Z,87.01
2022-10-01T18:38:46.078Z,87.00
2022-10-01T18:41:54.172Z,87.05
2022-10-01T18:45:14.145Z,87.07
2022-10-01T18:48:37.801Z,87.08
2022-10-01T18:52:00.228Z,87.12
2022-10-01T18:55:28.625Z,87.16
2022-10-01T18:58:53.269Z,87.11
2022-10-01T19:02:12.536Z,87.17
2022-10-01T19:06:02.105Z,87.31
2022-10-01T19:09:51.607Z,87.48
2022-10-01T19:13:28.988Z,87.61
2022-10-01T19:17:09.850Z,87.71
2022-10-01T19:20:51.218Z,87.72
2022-10-01T19:24:23.419Z,87.71
2022-10-01T19:27:33.398Z,87.67
2022-10-01T19:30:39.300Z,87.57
2022-10-01T19:33:46.127Z,87.46
2022-10-01T19:36:56.190Z,87.51
2022-10-01T19:40:02.739Z,87.61
2022-10-01T19:43:33.143Z,87.67
2022-10-01T19:46:53.701Z,87.67
2022-10-01T19:50:01.653Z,87.67
2022-10-01T19:53:11.955Z,87.77
2022-10-01T19:56:18.488Z,87.80
2022-10-01T19:59:29.455Z,87.81
2022-10-01T20:02:52.338Z,87.79
2022-10-01T20:06:11.391Z,87.74
2022-10-01T20:09:43.041Z,87.68
2022-10-01T20:13:06.584Z,87.70
2022-10-01T20:16:43.157Z,87.74
2022-10-01T20:19:56.622Z,87.72
2022-10-01T20:23:19.418Z,87.76
2022-10-01T20:26:45.034Z,87.79
2022-10-01T20:30:17.379Z,87.81
2022-10-01T20:33:31.823Z,87.83
2022-10-01T20:36:43.823Z,87.76
2022-10-01T20:40:03.398Z,87.77
2022-10-01T20:43:21.186Z,87.77
2022-10-01T20:47:02.763Z,87.85
2022-10-01T20:50:17.265Z,87.91
2022-10-01T20:53:48.200Z,87.98
2022-10-01T20:57:01.356Z,88.07
2022-10-01T21:00:09.377Z,87.85
2022-10-01T21:03:46.372Z,87.85
2022-10-01T21:07:08.795Z,87.95
2022-10-01T21:10:15.683Z,88.01
2022-10-01T21:13:32.513Z,88.05
2022-10-01T21:16:49.370Z,88.04
2022-10-01T21:20:20.825Z,88.02
2022-10-01T21:23:41.767Z,88.08
2022-10-01T21:27:04.176Z,88.21
2022-10-01T21:30:16.403Z,88.42
2022-10-01T21:33:30.686Z,88.66
2022-10-01T21:37:04.087Z,88.84
2022-10-01T21:40:24.270Z,89.01
2022-10-01T21:43:35.727Z,89.12
2022-10-01T21:46:48.410Z,89.21
2022-10-01T21:50:27.672Z,89.28
2022-10-01T21:53:54.059Z,89.31
2022-10-01T21:57:38.155Z,89.37
2022-10-01T22:00:44.372Z,89.47
2022-10-01T22:03:54.783Z,89.51
2022-10-01T22:07:12.094Z,89.53
2022-10-01T22:10:27.837Z,89.58
2022-10-01T22:13:42.145Z,89.61
2022-10-01T22:16:52.815Z,89.61
2022-10-01T22:20:07.215Z,89.60
2022-10-01T22:23:18.725Z,89.57
2022-10-01T22:26:34.583Z,89.57
2022-10-01T22:29:43.969Z,89.60
2022-10-01T22:33:11.300Z,89.63
2022-10-01T22:36:27.994Z,89.63
2022-10-01T22:39:45.572Z,89.66
2022-10-01T22:43:02.408Z,89.67
2022-10-01T22:47:06.478Z,89.71
2022-10-01T22:50:34.397Z,89.74
2022-10-01T22:54:10.235Z,89.86
2022-10-01T22:57:46.983Z,89.90
2022-10-01T23:01:32.746Z,89.91
2022-10-01T23:05:06.090Z,89.93
2022-10-01T23:08:39.880Z,89.92
2022-10-01T23:12:01.317Z,89.95
2022-10-01T23:15:38.153Z,89.97
2022-10-01T23:19:00.999Z,90.01
2022-10-01T23:22:14.328Z,90.05
2022-10-01T23:25:46.460Z,90.07
2022-10-01T23:29:24.908Z,90.11
2022-10-01T23:32:51.401Z,90.15
2022-10-01T23:36:14.681Z,90.21
2022-10-01T23:39:51.231Z,90.25
2022-10-01T23:43:02.651Z,90.27
2022-10-01T23:46:22.516Z,90.28
2022-10-01T23:49:31.616Z,90.33
2022-10-01T23:52:56.535Z,90.36
2022-10-01T23:56:49.383Z,90.39
